createdAt,value
2023-02-17T00:00:58.256Z,75.64
2023-02-17T00:03:25.510Z,74.87
2023-02-17T00:05:53.140Z,75.15
2023-02-17T00:08:20.136Z,76.29
2023-02-17T00:10:58.466Z,76.57
2023-02-17T00:13:25.798Z,76.82
2023-02-17T00:15:52.980Z,77.25
2023-02-17T00:18:19.920Z,77.80
2023-02-17T00:20:46.847Z,79.46
2023-02-17T00:23:13.776Z,78.84
2023-02-17T00:25:41.101Z,77.84
2023-02-17T00:28:08.051Z,77.93
2023-02-17T00:30:34.971Z,79.36
2023-02-17T00:33:01.854Z,78.32
2023-02-17T00:35:28.720Z,76.47
2023-02-17T00:37:55.584Z,76.17
2023-02-17T00:40:22.498Z,76.74
2023-02-17T00:42:49.280Z,76.89
2023-02-17T00:45:16.416Z,76.49
2023-02-17T00:47:43.294Z,76.56
2023-02-17T00:50:10.384Z,77.04
2023-02-17T00:52:37.221Z,77.26
2023-02-17T00:55:04.320Z,77.38
2023-02-17T00:57:32.557Z,77.94
2023-02-17T00:59:59.537Z,78.97
2023-02-17T01:02:26.696Z,78.34
2023-02-17T01:04:53.902Z,77.69
2023-02-17T01:07:20.739Z,77.31
2023-02-17T01:09:47.609Z,77.79
2023-02-17T01:12:14.633Z,77.00
2023-02-17T01:14:41.521Z,76.25
2023-02-17T01:17:08.397Z,76.78
2023-02-17T01:19:35.297Z,75.75
2023-02-17T01:22:02.390Z,75.93
2023-02-17T01:24:29.357Z,74.62
2023-02-17T01:26:56.314Z,74.36
2023-02-17T01:29:23.206Z,74.18
2023-02-17T01:31:50.217Z,73.80
2023-02-17T01:34:17.216Z,73.62
2023-02-17T01:36:44.112Z,72.88
2023-02-17T01:39:14.233Z,72.39
2023-02-17T01:41:41.278Z,73.00
2023-02-17T01:44:23.179Z,74.08
2023-02-17T01:46:55.193Z,72.53
2023-02-17T01:49:24.908Z,71.95
2023-02-17T01:51:57.364Z,73.98
2023-02-17T01:54:59.118Z,72.34
2023-02-17T01:57:32.917Z,71.70
2023-02-17T02:00:00.152Z,71.62
2023-02-17T02:02:30.292Z,72.37
2023-02-17T02:04:57.554Z,72.02
2023-02-17T02:07:36.215Z,71.75
2023-02-17T02:10:03.807Z,72.31
2023-02-17T02:12:36.631Z,72.49
2023-02-17T02:15:17.655Z,72.62
2023-02-17T02:18:21.714Z,72.28
2023-02-17T02:21:00.515Z,72.79
2023-02-17T02:23:52.261Z,74.03
2023-02-17T02:26:21.891Z,73.12
2023-02-17T02:29:03.306Z,72.78
2023-02-17T02:31:56.713Z,73.08
2023-02-17T02:34:37.588Z,73.36
2023-02-17T02:37:16.972Z,72.72
2023-02-17T02:39:52.473Z,73.49
2023-02-17T02:42:22.939Z,73.65
2023-02-17T02:44:50.811Z,73.80
2023-02-17T02:47:42.554Z,73.39
2023-02-17T02:50:17.019Z,73.06
2023-02-17T02:53:08.488Z,72.95
2023-02-17T02:55:51.939Z,73.67
2023-02-17T02:58:37.520Z,73.30
2023-02-17T03:01:14.287Z,73.64
2023-02-17T03:03:58.842Z,77.32
2023-02-17T03:06:53.315Z,75.39
2023-02-17T03:09:24.846Z,74.88
2023-02-17T03:11:52.599Z,75.23
2023-02-17T03:27:46.786Z,80.21
2023-02-17T03:30:15.151Z,80.56
2023-02-17T03:32:42.784Z,81.42
2023-02-17T03:35:09.644Z,81.22
2023-02-17T03:37:36.532Z,81.14
2023-02-17T03:40:04.005Z,80.03
2023-02-17T03:42:30.856Z,79.79
2023-02-17T03:44:57.786Z,80.62
2023-02-17T03:47:24.871Z,79.79
2023-02-17T03:49:52.413Z,79.30
2023-02-17T03:52:19.297Z,80.22
2023-02-17T03:54:46.284Z,80.45
2023-02-17T03:57:13.062Z,79.44
2023-02-17T03:59:39.950Z,80.11
2023-02-17T04:02:06.792Z,81.05
2023-02-17T04:04:33.680Z,81.09
2023-02-17T04:07:00.495Z,80.26
2023-02-17T04:09:27.424Z,80.74
2023-02-17T04:11:54.243Z,81.92
2023-02-17T04:14:21.289Z,80.49
2023-02-17T04:16:48.238Z,80.84
2023-02-17T04:19:15.050Z,81.84
2023-02-17T04:21:41.983Z,81.63
2023-02-17T04:24:08.881Z,81.00
2023-02-17T04:26:35.796Z,81.32
2023-02-17T04:29:04.552Z,80.94
2023-02-17T04:31:31.590Z,81.49
2023-02-17T04:33:58.567Z,80.58
2023-02-17T04:36:25.449Z,81.79
2023-02-17T04:38:52.405Z,81.78
2023-02-17T04:41:19.245Z,81.01
2023-02-17T04:43:46.094Z,80.57
2023-02-17T04:46:13.072Z,81.46
2023-02-17T04:48:40.061Z,81.98
2023-02-17T04:51:06.965Z,80.80
2023-02-17T04:53:33.881Z,80.96
2023-02-17T04:56:00.850Z,83.24
2023-02-17T04:58:27.880Z,84.25
2023-02-17T05:00:54.806Z,79.55
2023-02-17T05:03:21.748Z,80.03
2023-02-17T05:05:49.688Z,81.05
2023-02-17T05:08:16.468Z,80.79
2023-02-17T05:10:43.359Z,80.37
2023-02-17T05:13:10.149Z,81.20
2023-02-17T05:15:37.033Z,82.51
2023-02-17T05:18:05.038Z,79.39
2023-02-17T05:20:31.927Z,79.17
2023-02-17T05:22:58.810Z,79.22
2023-02-17T05:25:25.726Z,79.97
2023-02-17T05:27:52.821Z,77.17
2023-02-17T05:30:20.059Z,78.23
2023-02-17T05:32:47.067Z,81.64
2023-02-17T05:35:13.892Z,76.17
2023-02-17T05:37:40.833Z,75.35
2023-02-17T05:40:08.924Z,76.34
2023-02-17T05:42:35.718Z,79.60
2023-02-17T05:45:02.603Z,76.62
2023-02-17T05:47:29.522Z,70.24
2023-02-17T05:49:56.442Z,71.47
2023-02-17T05:52:23.283Z,70.97
2023-02-17T05:54:50.212Z,70.09
2023-02-17T05:57:17.074Z,63.71
2023-02-17T05:59:44.099Z,61.51
2023-02-17T06:02:11.025Z,58.26
2023-02-17T06:04:38.368Z,56.71
2023-02-17T06:07:05.256Z,60.66
2023-02-17T06:09:32.136Z,58.50
2023-02-17T06:11:59.021Z,56.02
2023-02-17T06:14:25.888Z,54.85
2023-02-17T06:16:53.913Z,54.08
2023-02-17T06:19:20.803Z,52.43
2023-02-17T06:21:47.670Z,49.30
2023-02-17T06:24:14.538Z,46.99
2023-02-17T06:26:41.492Z,48.05
2023-02-17T06:29:08.306Z,53.88
2023-02-17T06:31:35.232Z,55.42
2023-02-17T06:34:02.102Z,52.05
2023-02-17T06:36:28.943Z,50.75
2023-02-17T06:38:55.807Z,49.64
2023-02-17T06:41:22.544Z,50.16
2023-02-17T06:43:49.492Z,51.12
2023-02-17T06:46:16.453Z,48.55
2023-02-17T06:48:46.376Z,45.54
2023-02-17T06:51:13.284Z,45.32
2023-02-17T06:53:40.164Z,50.31
2023-02-17T06:56:07.558Z,52.65
2023-02-17T06:58:36.688Z,49.57
2023-02-17T07:01:05.149Z,45.83
2023-02-17T07:03:32.650Z,41.69
2023-02-17T07:06:00.096Z,40.59
2023-02-17T07:08:27.009Z,38.09
2023-02-17T07:10:53.875Z,35.03
2023-02-17T07:13:20.842Z,35.92
2023-02-17T07:15:47.802Z,34.13
2023-02-17T07:18:14.550Z,34.87
2023-02-17T07:20:41.575Z,34.60
2023-02-17T07:23:08.587Z,37.35
2023-02-17T07:25:35.521Z,37.09
2023-02-17T07:28:02.643Z,38.45
2023-02-17T07:30:29.790Z,37.24
2023-02-17T07:32:56.719Z,37.57
2023-02-17T07:35:23.767Z,38.19
2023-02-17T07:37:51.746Z,38.70
2023-02-17T07:40:18.988Z,39.55
2023-02-17T07:42:45.870Z,39.48
2023-02-17T07:45:13.751Z,38.75
2023-02-17T07:47:40.751Z,39.37
2023-02-17T07:50:08.818Z,37.79
2023-02-17T07:52:35.730Z,37.54
2023-02-17T07:55:02.820Z,35.93
2023-02-17T07:57:30.581Z,35.63
2023-02-17T07:59:57.478Z,33.13
2023-02-17T08:02:24.448Z,31.79
2023-02-17T08:04:52.734Z,31.96
2023-02-17T08:07:19.778Z,35.98
2023-02-17T08:10:05.345Z,36.27
2023-02-17T08:12:50.975Z,34.96
2023-02-17T08:15:17.899Z,34.87
2023-02-17T08:17:44.763Z,34.56
2023-02-17T08:30:16.838Z,35.38
2023-02-17T08:32:54.589Z,35.88
2023-02-17T08:35:22.745Z,36.70
2023-02-17T08:37:50.421Z,36.89
2023-02-17T08:40:18.821Z,36.92
2023-02-17T08:42:45.693Z,36.63
2023-02-17T08:45:16.047Z,38.36
2023-02-17T08:47:43.157Z,37.40
2023-02-17T08:50:16.070Z,37.70
2023-02-17T08:52:43.016Z,36.86
2023-02-17T08:55:10.073Z,35.49
2023-02-17T08:57:37.213Z,34.26
2023-02-17T09:00:08.887Z,34.33
2023-02-17T09:02:37.666Z,36.42
2023-02-17T09:05:06.319Z,36.92
2023-02-17T09:07:33.282Z,35.79
2023-02-17T09:10:00.861Z,34.65
2023-02-17T09:12:27.644Z,35.24
2023-02-17T09:14:54.623Z,33.44
2023-02-17T09:17:21.613Z,33.61
2023-02-17T09:19:48.586Z,33.34
2023-02-17T09:22:30.755Z,32.02
2023-02-17T09:24:58.721Z,33.12
2023-02-17T09:27:25.637Z,32.38
2023-02-17T09:29:52.482Z,32.36
2023-02-17T09:32:19.469Z,33.10
2023-02-17T09:34:53.171Z,33.14
2023-02-17T09:37:20.357Z,32.67
2023-02-17T09:39:48.879Z,33.92
2023-02-17T09:42:23.762Z,33.64
2023-02-17T09:45:15.481Z,33.54
2023-02-17T09:47:50.259Z,33.84
2023-02-17T09:50:23.753Z,34.33
2023-02-17T09:53:11.767Z,32.15
2023-02-17T09:55:48.259Z,31.95
2023-02-17T09:58:32.636Z,33.90
2023-02-17T10:01:03.863Z,33.35
2023-02-17T10:03:45.185Z,34.74
2023-02-17T10:06:39.074Z,34.25
2023-02-17T10:09:27.152Z,34.91
2023-02-17T10:12:07.212Z,34.07
2023-02-17T10:14:43.783Z,33.41
2023-02-17T10:17:18.424Z,32.66
2023-02-17T10:20:10.887Z,33.76
2023-02-17T10:22:40.048Z,33.40
2023-02-17T10:25:33.095Z,34.94
2023-02-17T10:28:10.783Z,33.66
2023-02-17T10:30:47.519Z,33.59
2023-02-17T10:33:37.287Z,33.48
2023-02-17T10:36:32.938Z,33.39
2023-02-17T10:39:20.164Z,34.63
2023-02-17T10:41:49.557Z,33.91
2023-02-17T10:44:23.214Z,34.74
2023-02-17T10:46:51.339Z,35.50
2023-02-17T10:49:34.622Z,35.62
2023-02-17T10:52:10.772Z,34.80
2023-02-17T10:54:42.264Z,35.20
2023-02-17T10:57:12.841Z,34.96
2023-02-17T10:59:43.039Z,33.33
2023-02-17T11:02:25.110Z,31.31
2023-02-17T11:04:56.348Z,31.94
2023-02-17T11:07:32.552Z,30.94
2023-02-17T11:10:02.748Z,29.98
2023-02-17T11:12:42.272Z,29.67
2023-02-17T11:15:21.940Z,27.83
2023-02-17T11:17:49.275Z,25.84
2023-02-17T11:20:16.452Z,23.18
2023-02-17T11:22:49.076Z,24.17
2023-02-17T11:25:26.904Z,23.79
2023-02-17T11:27:58.075Z,24.07
2023-02-17T11:30:27.511Z,26.34
2023-02-17T11:32:55.343Z,27.86
2023-02-17T11:35:37.503Z,26.73
2023-02-17T11:38:11.980Z,27.40
2023-02-17T11:40:39.415Z,26.49
2023-02-17T11:43:06.797Z,30.25
2023-02-17T11:45:59.171Z,30.41
2023-02-17T11:48:35.759Z,28.31
2023-02-17T11:51:33.648Z,28.14
2023-02-17T11:54:06.383Z,25.87
2023-02-17T11:56:39.466Z,26.50
2023-02-17T11:59:25.254Z,25.41
2023-02-17T12:02:12.085Z,27.34
2023-02-17T12:04:52.939Z,26.50
2023-02-17T12:07:40.322Z,26.51
2023-02-17T12:10:24.508Z,28.13
2023-02-17T12:13:32.658Z,27.52
2023-02-17T12:16:08.947Z,26.39
2023-02-17T12:18:53.572Z,25.88
2023-02-17T12:21:34.469Z,27.14
2023-02-17T12:24:10.423Z,29.28
2023-02-17T12:26:43.628Z,30.42
2023-02-17T12:29:28.620Z,31.53
2023-02-17T12:32:18.894Z,34.17
2023-02-17T12:35:03.911Z,34.51
2023-02-17T12:37:33.222Z,34.90
2023-02-17T12:40:04.586Z,34.45
2023-02-17T12:42:43.588Z,33.97
2023-02-17T12:45:13.644Z,34.16
2023-02-17T12:48:24.251Z,34.51
2023-02-17T12:50:59.796Z,35.13
2023-02-17T12:53:51.586Z,35.86
2023-02-17T12:56:34.621Z,36.45
2023-02-17T12:59:15.192Z,35.51
2023-02-17T13:01:49.757Z,34.83
2023-02-17T13:04:20.656Z,34.10
2023-02-17T13:06:54.745Z,33.99
2023-02-17T13:09:33.152Z,34.73
2023-02-17T13:12:24.973Z,35.15
2023-02-17T13:14:56.286Z,35.32
2023-02-17T13:17:51.910Z,35.63
2023-02-17T13:20:18.673Z,35.60
2023-02-17T13:22:47.666Z,36.55
2023-02-17T13:25:31.058Z,37.08
2023-02-17T13:28:01.324Z,36.43
2023-02-17T13:30:40.825Z,35.88
2023-02-17T13:33:20.448Z,35.90
2023-02-17T13:35:48.126Z,35.90
2023-02-17T13:38:26.955Z,35.33
2023-02-17T13:41:02.523Z,34.89
2023-02-17T13:43:33.722Z,35.05
2023-02-17T13:46:02.100Z,34.98
2023-02-17T13:48:34.877Z,35.50
2023-02-17T13:51:07.215Z,35.52
2023-02-17T13:53:40.459Z,36.48
2023-02-17T13:56:10.823Z,37.24
2023-02-17T13:58:40.299Z,36.94
2023-02-17T14:01:14.293Z,36.84
2023-02-17T14:03:42.680Z,37.09
2023-02-17T14:06:21.557Z,37.71
2023-02-17T14:08:48.818Z,37.57
2023-02-17T14:11:20.122Z,37.67
2023-02-17T14:13:51.441Z,37.66
2023-02-17T14:16:27.862Z,37.99
2023-02-17T14:19:10.464Z,38.07
2023-02-17T14:21:44.550Z,39.48
2023-02-17T14:24:30.821Z,39.75
2023-02-17T14:27:08.280Z,39.83
2023-02-17T14:29:39.908Z,39.73
2023-02-17T14:32:07.034Z,40.19
2023-02-17T14:34:36.588Z,40.37
2023-02-17T14:37:10.848Z,40.30
2023-02-17T14:39:37.656Z,41.37
2023-02-17T14:42:04.741Z,41.14
2023-02-17T14:44:31.657Z,41.53
2023-02-17T14:46:58.959Z,42.29
2023-02-17T14:49:25.854Z,42.93
2023-02-17T14:51:52.715Z,44.13
2023-02-17T14:54:19.757Z,44.21
2023-02-17T14:57:07.287Z,44.46
2023-02-17T14:59:34.245Z,43.76
2023-02-17T15:02:01.192Z,44.62
2023-02-17T15:04:28.274Z,44.89
2023-02-17T15:06:55.332Z,44.42
2023-02-17T15:09:30.510Z,44.93
2023-02-17T15:11:58.606Z,45.17
2023-02-17T15:29:50.040Z,52.31
2023-02-17T15:32:23.293Z,53.50
2023-02-17T15:34:50.425Z,52.01
2023-02-17T15:37:17.315Z,52.17
2023-02-17T15:39:44.265Z,52.22
2023-02-17T15:42:14.307Z,52.70
2023-02-17T15:44:51.131Z,53.38
2023-02-17T15:47:20.060Z,53.50
2023-02-17T15:49:47.248Z,52.99
2023-02-17T15:52:14.904Z,54.38
2023-02-17T15:54:42.898Z,54.30
2023-02-17T15:57:23.569Z,54.81
2023-02-17T15:59:50.736Z,54.83
2023-02-17T16:02:23.379Z,55.82
2023-02-17T16:04:50.702Z,56.57
2023-02-17T16:07:17.687Z,58.18
2023-02-17T16:09:44.567Z,58.73
2023-02-17T16:12:26.651Z,58.62
2023-02-17T16:14:54.740Z,59.66
2023-02-17T16:17:21.638Z,59.39
2023-02-17T16:19:48.492Z,59.45
2023-02-17T16:22:15.370Z,59.26
2023-02-17T16:24:42.269Z,57.85
2023-02-17T16:27:14.605Z,59.55
2023-02-17T16:29:41.889Z,59.74
2023-02-17T16:32:12.846Z,59.35
2023-02-17T16:34:40.403Z,58.60
2023-02-17T16:37:15.232Z,58.42
2023-02-17T16:39:42.358Z,58.73
2023-02-17T16:42:12.368Z,58.36
2023-02-17T16:44:39.228Z,58.06
2023-02-17T16:47:09.126Z,58.45
2023-02-17T16:49:39.881Z,57.88
2023-02-17T16:52:21.281Z,58.25
2023-02-17T16:54:48.103Z,58.03
2023-02-17T16:57:18.491Z,59.52
2023-02-17T16:59:46.473Z,58.03
2023-02-17T17:02:14.305Z,58.34
2023-02-17T17:04:41.222Z,57.78
2023-02-17T17:07:13.819Z,57.58
2023-02-17T17:09:40.978Z,56.93
2023-02-17T17:12:10.997Z,58.82
2023-02-17T17:14:37.965Z,59.04
2023-02-17T17:17:04.943Z,59.36
2023-02-17T17:19:31.784Z,59.51
2023-02-17T17:21:58.661Z,58.95
2023-02-17T17:24:25.652Z,59.77
2023-02-17T17:26:52.667Z,60.42
2023-02-17T17:29:19.784Z,60.37
2023-02-17T17:31:47.220Z,60.43
2023-02-17T17:34:14.314Z,59.92
2023-02-17T17:36:42.471Z,60.15
2023-02-17T17:39:16.295Z,61.36
2023-02-17T17:41:43.298Z,62.47
2023-02-17T17:44:10.710Z,62.02
2023-02-17T17:46:38.919Z,61.50
2023-02-17T17:49:10.192Z,61.63
2023-02-17T17:51:38.714Z,61.62
2023-02-17T17:54:07.043Z,63.18
2023-02-17T17:56:38.890Z,62.90
2023-02-17T17:59:06.786Z,62.88
2023-02-17T18:01:34.064Z,62.59
2023-02-17T18:04:01.692Z,62.43
2023-02-17T18:06:35.547Z,62.91
2023-02-17T18:09:05.382Z,62.94
2023-02-17T18:11:33.455Z,64.12
2023-02-17T18:14:05.362Z,64.78
2023-02-17T18:16:33.622Z,64.90
2023-02-17T18:19:02.328Z,65.10
2023-02-17T18:21:29.270Z,65.14
2023-02-17T18:23:56.293Z,64.65
2023-02-17T18:26:23.409Z,65.04
2023-02-17T18:28:50.269Z,64.26
2023-02-17T18:31:17.329Z,64.49
2023-02-17T18:33:44.276Z,66.22
2023-02-17T18:36:17.399Z,65.43
2023-02-17T18:38:45.219Z,64.58
2023-02-17T18:41:41.193Z,64.25
2023-02-17T18:44:11.066Z,64.34
2023-02-17T18:46:39.217Z,64.09
2023-02-17T18:49:06.553Z,65.21
2023-02-17T18:51:33.595Z,65.61
2023-02-17T18:54:01.591Z,65.29
2023-02-17T18:56:31.426Z,65.22
2023-02-17T18:58:58.835Z,63.90
2023-02-17T19:01:29.118Z,64.01
2023-02-17T19:03:56.452Z,63.78
2023-02-17T19:06:30.079Z,63.90
2023-02-17T19:08:57.150Z,66.26
2023-02-17T19:11:25.478Z,65.37
2023-02-17T19:13:53.420Z,65.35
2023-02-17T19:16:25.904Z,65.52
2023-02-17T19:18:53.045Z,65.09
2023-02-17T19:21:20.769Z,65.38
2023-02-17T19:23:48.716Z,65.74
2023-02-17T19:26:16.865Z,65.71
2023-02-17T19:28:45.153Z,65.30
2023-02-17T19:31:15.573Z,65.52
2023-02-17T19:33:44.368Z,64.71
2023-02-17T19:36:14.636Z,65.35
2023-02-17T19:38:41.655Z,64.02
2023-02-17T19:41:10.834Z,63.64
2023-02-17T19:43:37.824Z,64.54
2023-02-17T19:46:05.398Z,64.71
2023-02-17T19:48:33.115Z,63.92
2023-02-17T19:51:02.795Z,63.88
2023-02-17T19:53:31.586Z,63.02
2023-02-17T19:56:13.448Z,62.79
2023-02-17T19:58:41.923Z,62.35
2023-02-17T20:01:11.970Z,63.34
2023-02-17T20:03:39.503Z,62.65
2023-02-17T20:06:13.218Z,62.48
2023-02-17T20:08:40.333Z,62.18
2023-02-17T20:11:09.545Z,62.14
2023-02-17T20:13:45.721Z,61.69
2023-02-17T20:16:15.439Z,61.08
2023-02-17T20:18:44.978Z,62.53
2023-02-17T20:21:14.768Z,61.85
2023-02-17T20:23:41.875Z,61.51
2023-02-17T20:26:14.081Z,61.12
2023-02-17T20:28:41.345Z,60.66
2023-02-17T20:31:09.738Z,60.32
2023-02-17T20:33:36.864Z,60.71
2023-02-17T20:36:05.829Z,61.71
2023-02-17T20:38:33.229Z,61.44
2023-02-17T20:41:00.479Z,61.09
2023-02-17T20:43:27.409Z,60.63
2023-02-17T20:45:54.754Z,60.01
2023-02-17T20:48:22.053Z,60.45
2023-02-17T20:50:49.008Z,60.56
2023-02-17T20:53:15.857Z,61.44
2023-02-17T20:55:42.668Z,60.94
2023-02-17T20:58:10.804Z,60.87
2023-02-17T21:00:37.990Z,60.42
2023-02-17T21:03:05.301Z,60.61
2023-02-17T21:05:32.438Z,60.40
2023-02-17T21:07:59.521Z,61.11
2023-02-17T21:10:29.440Z,61.80
2023-02-17T21:12:56.591Z,61.10
2023-02-17T21:15:23.900Z,61.39
2023-02-17T21:17:51.230Z,61.44
2023-02-17T21:20:20.921Z,61.97
2023-02-17T21:22:48.304Z,61.97
2023-02-17T21:25:15.332Z,62.66
2023-02-17T21:27:42.360Z,62.31
2023-02-17T21:30:10.964Z,62.08
2023-02-17T21:32:38.581Z,61.95
2023-02-17T21:35:06.454Z,62.31
2023-02-17T21:37:34.452Z,62.13
2023-02-17T21:40:01.325Z,61.96
2023-02-17T21:42:46.808Z,61.50
2023-02-17T21:45:13.757Z,61.73
2023-02-17T21:47:40.633Z,61.40
2023-02-17T21:50:07.947Z,61.59
2023-02-17T21:52:34.977Z,61.28
2023-02-17T21:55:01.881Z,60.95
2023-02-17T21:57:28.895Z,61.19
2023-02-17T21:59:55.693Z,61.05
2023-02-17T22:02:22.627Z,60.61
2023-02-17T22:04:49.550Z,60.84
2023-02-17T22:07:16.425Z,60.94
2023-02-17T22:09:43.306Z,60.63
2023-02-17T22:12:10.131Z,60.81
2023-02-17T22:14:36.934Z,60.28
2023-02-17T22:17:04.037Z,60.75
2023-02-17T22:19:31.654Z,60.53
2023-02-17T22:21:58.804Z,60.92
2023-02-17T22:24:27.364Z,60.96
2023-02-17T22:26:54.882Z,61.05
2023-02-17T22:29:21.982Z,61.49
2023-02-17T22:31:50.517Z,61.47
2023-02-17T22:34:17.629Z,61.20
2023-02-17T22:36:44.915Z,61.54
2023-02-17T22:39:12.404Z,61.27
2023-02-17T22:41:39.920Z,61.43
2023-02-17T22:44:07.767Z,61.95
2023-02-17T22:46:35.362Z,61.74
2023-02-17T22:49:02.541Z,61.16
2023-02-17T22:51:32.123Z,62.07
2023-02-17T22:54:01.107Z,61.78
2023-02-17T22:56:28.889Z,62.21
2023-02-17T22:58:58.041Z,61.70
2023-02-17T23:01:25.451Z,61.78
2023-02-17T23:03:54.546Z,61.37
2023-02-17T23:06:27.981Z,62.21
2023-02-17T23:08:55.606Z,61.51
2023-02-17T23:11:44.161Z,61.38
2023-02-17T23:14:13.539Z,62.09
2023-02-17T23:16:40.598Z,61.98
2023-02-17T23:19:09.287Z,62.05
2023-02-17T23:21:36.766Z,61.92
2023-02-17T23:24:04.670Z,61.44
2023-02-17T23:26:31.595Z,62.05
2023-02-17T23:28:59.635Z,61.77
2023-02-17T23:31:26.637Z,62.02
2023-02-17T23:33:53.522Z,61.81
2023-02-17T23:36:20.629Z,61.78
2023-02-17T23:38:47.511Z,60.86
2023-02-17T23:41:14.358Z,60.61
2023-02-17T23:43:41.641Z,60.47
2023-02-17T23:46:08.914Z,59.92
2023-02-17T23:48:36.068Z,59.35
2023-02-17T23:51:04.775Z,59.39
2023-02-17T23:53:32.986Z,59.34
2023-02-17T23:56:14.624Z,58.68
2023-02-17T23:58:41.896Z,58.49
